createdAt,value
2018-09-05T00:01:30.957Z,19.60
2018-09-05T00:03:59.156Z,19.60
2018-09-05T00:06:27.508Z,19.60
2018-09-05T00:08:55.725Z,19.60
2018-09-05T00:11:24.653Z,19.60
2018-09-05T00:13:53.158Z,19.50
2018-09-05T00:16:21.478Z,19.50
2018-09-05T00:18:50.681Z,19.50
2018-09-05T00:21:19.157Z,19.50
2018-09-05T00:23:47.457Z,19.50
2018-09-05T00:26:15.702Z,19.50
2018-09-05T00:28:44.346Z,19.50
2018-09-05T00:31:15.061Z,19.50
2018-09-05T00:33:43.666Z,19.50
2018-09-05T00:36:12.174Z,19.40
2018-09-05T00:38:40.482Z,19.50
2018-09-05T00:41:08.818Z,19.50
2018-09-05T00:43:37.117Z,19.50
2018-09-05T00:46:05.526Z,19.40
2018-09-05T00:48:33.732Z,19.50
2018-09-05T00:51:01.950Z,19.50
2018-09-05T00:53:30.165Z,19.40
2018-09-05T00:55:58.650Z,19.40
2018-09-05T00:58:26.870Z,19.40
2018-09-05T01:00:55.124Z,19.40
2018-09-05T01:03:23.401Z,19.40
2018-09-05T01:05:51.602Z,19.40
2018-09-05T01:08:20.010Z,19.50
2018-09-05T01:10:48.485Z,19.60
2018-09-05T01:13:17.051Z,19.60
2018-09-05T01:15:45.269Z,19.50
2018-09-05T01:18:13.574Z,19.40
2018-09-05T01:20:41.766Z,19.40
2018-09-05T01:23:09.965Z,19.50
2018-09-05T01:25:38.484Z,19.40
2018-09-05T01:28:06.677Z,19.40
2018-09-05T01:30:34.995Z,19.50
2018-09-05T01:33:03.971Z,19.40
2018-09-05T01:35:32.158Z,19.50
2018-09-05T01:38:00.421Z,19.40
2018-09-05T01:40:28.698Z,19.40
2018-09-05T01:42:56.930Z,19.40
2018-09-05T01:45:25.190Z,19.40
2018-09-05T01:47:53.426Z,19.40
2018-09-05T01:50:25.854Z,19.40
2018-09-05T01:52:54.105Z,19.40
2018-09-05T01:55:22.300Z,19.40
2018-09-05T01:57:50.522Z,19.40
2018-09-05T02:00:23.933Z,19.40
2018-09-05T02:02:52.345Z,19.40
2018-09-05T02:05:20.565Z,19.40
2018-09-05T02:07:48.918Z,19.40
2018-09-05T02:10:17.346Z,19.40
2018-09-05T02:12:45.726Z,19.40
2018-09-05T02:15:14.810Z,19.40
2018-09-05T02:17:42.991Z,19.30
2018-09-05T02:20:11.402Z,19.40
2018-09-05T02:22:39.675Z,19.40
2018-09-05T02:25:08.338Z,19.30
2018-09-05T02:27:36.537Z,19.40
2018-09-05T02:30:05.768Z,19.30
2018-09-05T02:32:33.989Z,19.30
2018-09-05T02:35:02.337Z,19.30
2018-09-05T02:37:30.926Z,19.30
2018-09-05T02:39:59.122Z,19.30
2018-09-05T02:42:27.321Z,19.30
2018-09-05T02:44:55.834Z,19.30
2018-09-05T02:47:24.083Z,19.30
2018-09-05T02:49:52.278Z,19.30
2018-09-05T02:52:20.589Z,19.30
2018-09-05T02:54:48.777Z,19.30
2018-09-05T02:57:16.966Z,19.30
2018-09-05T02:59:45.182Z,19.30
2018-09-05T03:02:13.708Z,19.30
2018-09-05T03:04:41.901Z,19.30
2018-09-05T03:07:10.111Z,19.30
2018-09-05T03:09:38.403Z,19.30
2018-09-05T03:12:06.618Z,19.30
2018-09-05T03:14:34.890Z,19.30
2018-09-05T03:17:03.288Z,19.30
2018-09-05T03:19:31.478Z,19.20
2018-09-05T03:21:59.773Z,19.30
2018-09-05T03:24:27.965Z,19.20
2018-09-05T03:26:56.209Z,19.20
2018-09-05T03:29:24.402Z,19.20
2018-09-05T03:31:52.597Z,19.20
2018-09-05T03:34:20.829Z,19.20
2018-09-05T03:36:49.030Z,19.20
2018-09-05T03:39:17.254Z,19.20
2018-09-05T03:41:45.473Z,19.10
2018-09-05T03:44:15.450Z,19.20
2018-09-05T03:46:43.682Z,19.10
2018-09-05T03:49:11.937Z,19.00
2018-09-05T03:51:40.349Z,19.00
2018-09-05T03:54:08.593Z,19.00
2018-09-05T03:56:36.788Z,19.10
2018-09-05T03:59:05.296Z,19.00
2018-09-05T04:01:33.494Z,19.00
2018-09-05T04:04:01.758Z,19.00
2018-09-05T04:06:29.965Z,19.00
2018-09-05T04:08:58.498Z,19.00
2018-09-05T04:11:27.078Z,19.00
2018-09-05T04:13:55.316Z,19.00
2018-09-05T04:16:24.281Z,19.00
2018-09-05T04:18:52.488Z,19.00
2018-09-05T04:21:21.033Z,19.00
2018-09-05T04:23:49.577Z,18.90
2018-09-05T04:26:18.942Z,18.90
2018-09-05T04:28:47.486Z,18.80
2018-09-05T04:31:16.107Z,18.90
2018-09-05T04:33:44.313Z,18.90
2018-09-05T04:36:14.205Z,18.90
2018-09-05T04:38:43.868Z,18.90
2018-09-05T04:41:12.345Z,18.80
2018-09-05T04:43:42.469Z,19.00
2018-09-05T04:46:10.661Z,19.00
2018-09-05T04:48:38.881Z,19.00
2018-09-05T04:51:07.585Z,19.00
2018-09-05T04:53:36.289Z,18.90
2018-09-05T04:56:04.672Z,18.90
2018-09-05T04:58:33.227Z,18.90
2018-09-05T05:01:01.434Z,18.90
2018-09-05T05:03:30.685Z,19.00
2018-09-05T05:05:59.045Z,19.00
2018-09-05T05:08:27.267Z,19.00
2018-09-05T05:10:55.606Z,19.00
2018-09-05T05:13:24.105Z,19.10
2018-09-05T05:15:52.321Z,19.20
2018-09-05T05:18:20.753Z,19.10
2018-09-05T05:20:49.153Z,19.10
2018-09-05T05:23:17.358Z,19.10
2018-09-05T05:25:45.763Z,19.20
2018-09-05T05:28:14.045Z,19.20
2018-09-05T05:30:42.249Z,19.20
2018-09-05T05:33:10.576Z,19.20
2018-09-05T05:35:38.984Z,19.20
2018-09-05T05:38:07.243Z,19.30
2018-09-05T05:40:35.454Z,19.30
2018-09-05T05:43:03.819Z,19.40
2018-09-05T05:45:32.043Z,19.40
2018-09-05T05:48:00.262Z,19.40
2018-09-05T05:50:28.477Z,19.50
2018-09-05T05:52:56.718Z,19.50
2018-09-05T05:55:24.914Z,19.50
2018-09-05T05:57:53.138Z,19.50
2018-09-05T06:00:23.391Z,19.60
2018-09-05T06:02:52.380Z,19.60
2018-09-05T06:05:20.798Z,19.60
2018-09-05T06:07:49.015Z,19.60
2018-09-05T06:10:17.542Z,19.60
2018-09-05T06:12:46.170Z,19.60
2018-09-05T06:15:14.375Z,19.70
2018-09-05T06:17:42.955Z,19.60
2018-09-05T06:20:11.879Z,19.70
2018-09-05T06:22:40.239Z,19.70
2018-09-05T06:25:08.586Z,19.70
2018-09-05T06:27:36.872Z,19.80
2018-09-05T06:30:05.443Z,19.80
2018-09-05T06:32:34.026Z,19.80
2018-09-05T06:35:03.130Z,19.70
2018-09-05T06:37:31.379Z,19.80
2018-09-05T06:39:59.596Z,19.80
2018-09-05T06:42:27.966Z,19.80
2018-09-05T06:44:56.419Z,19.80
2018-09-05T06:47:24.633Z,19.90
2018-09-05T06:49:52.870Z,20.00
2018-09-05T06:52:21.326Z,20.00
2018-09-05T06:54:49.588Z,20.00
2018-09-05T06:57:17.916Z,20.20
2018-09-05T06:59:47.450Z,20.10
2018-09-05T07:02:16.054Z,20.10
2018-09-05T07:04:44.810Z,20.20
2018-09-05T07:07:13.026Z,20.30
2018-09-05T07:09:41.254Z,20.30
2018-09-05T07:12:09.747Z,20.30
2018-09-05T07:14:38.028Z,20.30
2018-09-05T07:17:07.229Z,20.40
2018-09-05T07:19:35.534Z,20.40
2018-09-05T07:22:03.861Z,20.40
2018-09-05T07:24:32.063Z,20.40
2018-09-05T07:27:00.302Z,20.40
2018-09-05T07:29:28.528Z,20.50
2018-09-05T07:31:56.738Z,20.60
2018-09-05T07:34:25.491Z,20.70
2018-09-05T07:36:53.926Z,20.60
2018-09-05T07:39:22.148Z,20.80
2018-09-05T07:41:50.533Z,21.00
2018-09-05T07:44:18.748Z,20.90
2018-09-05T07:46:46.976Z,21.20
2018-09-05T07:49:15.285Z,21.30
2018-09-05T07:51:43.571Z,21.40
2018-09-05T07:54:12.554Z,21.50
2018-09-05T07:56:41.070Z,21.60
2018-09-05T07:59:09.257Z,21.70
2018-09-05T08:01:37.477Z,21.70
2018-09-05T08:04:05.875Z,21.70
2018-09-05T08:06:34.082Z,21.80
2018-09-05T08:09:02.298Z,21.80
2018-09-05T08:11:30.546Z,21.70
2018-09-05T08:13:58.790Z,21.70
2018-09-05T08:16:27.038Z,21.70
2018-09-05T08:18:55.318Z,21.70
2018-09-05T08:21:24.206Z,21.80
2018-09-05T08:23:52.427Z,21.90
2018-09-05T08:26:20.678Z,21.90
2018-09-05T08:28:48.950Z,21.90
2018-09-05T08:31:17.150Z,22.00
2018-09-05T08:33:45.454Z,22.00
2018-09-05T08:36:14.052Z,22.10
2018-09-05T08:38:42.797Z,22.20
2018-09-05T08:41:11.652Z,22.30
2018-09-05T08:43:40.768Z,22.30
2018-09-05T08:46:09.025Z,22.20
2018-09-05T08:48:37.165Z,22.10
2018-09-05T08:51:05.542Z,22.10
2018-09-05T08:53:33.799Z,22.00
2018-09-05T08:56:02.550Z,21.90
2018-09-05T08:58:30.870Z,21.80
2018-09-05T09:00:59.098Z,21.90
2018-09-05T09:03:27.469Z,21.70
2018-09-05T09:05:55.695Z,21.70
2018-09-05T09:08:24.002Z,21.80
2018-09-05T09:10:52.575Z,21.90
2018-09-05T09:13:20.919Z,22.00
2018-09-05T09:15:49.698Z,22.00
2018-09-05T09:18:19.870Z,22.30
2018-09-05T09:20:48.826Z,22.40
2018-09-05T09:23:17.268Z,22.50
2018-09-05T09:25:45.679Z,22.40
2018-09-05T09:28:13.944Z,22.40
2018-09-05T09:30:42.334Z,22.40
2018-09-05T09:33:10.949Z,22.30
2018-09-05T09:35:39.667Z,22.20
2018-09-05T09:38:07.943Z,22.00
2018-09-05T09:40:36.305Z,21.80
2018-09-05T09:43:05.099Z,21.90
2018-09-05T09:45:33.392Z,22.10
2018-09-05T09:48:01.694Z,22.00
2018-09-05T09:50:29.906Z,22.00
2018-09-05T09:52:58.162Z,21.90
2018-09-05T09:55:26.994Z,21.80
2018-09-05T09:57:56.517Z,21.80
2018-09-05T10:00:32.073Z,22.00
2018-09-05T10:03:05.574Z,21.90
2018-09-05T10:05:39.382Z,21.90
2018-09-05T10:08:12.978Z,21.90
2018-09-05T10:10:46.770Z,22.00
2018-09-05T10:13:20.226Z,22.00
2018-09-05T10:15:53.959Z,22.20
2018-09-05T10:18:26.193Z,22.20
2018-09-05T10:20:54.638Z,22.50
2018-09-05T10:23:23.038Z,22.60
2018-09-05T10:25:51.870Z,22.70
2018-09-05T10:28:20.239Z,23.00
2018-09-05T10:30:48.460Z,22.90
2018-09-05T10:33:16.675Z,22.80
2018-09-05T10:35:44.894Z,22.70
2018-09-05T10:38:13.089Z,22.80
2018-09-05T10:40:41.297Z,23.00
2018-09-05T10:43:09.511Z,23.30
2018-09-05T10:45:37.710Z,23.40
2018-09-05T10:48:06.359Z,23.60
2018-09-05T10:50:36.317Z,23.70
2018-09-05T10:53:05.036Z,23.50
2018-09-05T10:55:33.250Z,23.60
2018-09-05T10:58:01.601Z,23.30
2018-09-05T11:00:29.854Z,23.40
2018-09-05T11:02:58.043Z,23.50
2018-09-05T11:05:26.237Z,23.60
2018-09-05T11:07:54.430Z,23.60
2018-09-05T11:10:23.518Z,23.30
2018-09-05T11:12:52.029Z,23.10
2018-09-05T11:15:20.508Z,23.00
2018-09-05T11:17:48.778Z,23.20
2018-09-05T11:20:17.324Z,23.20
2018-09-05T11:22:45.617Z,23.20
2018-09-05T11:25:13.897Z,23.50
2018-09-05T11:27:42.744Z,23.80
2018-09-05T11:30:11.718Z,24.10
2018-09-05T11:32:40.875Z,24.20
2018-09-05T11:35:09.554Z,24.20
2018-09-05T11:37:37.862Z,24.10
2018-09-05T11:40:06.426Z,23.90
2018-09-05T11:42:34.756Z,23.70
2018-09-05T11:45:05.097Z,23.70
2018-09-05T11:47:33.346Z,23.80
2018-09-05T11:50:02.751Z,23.70
2018-09-05T11:52:32.682Z,23.60
2018-09-05T11:55:04.333Z,23.70
2018-09-05T11:57:34.944Z,23.60
2018-09-05T12:00:04.307Z,23.60
2018-09-05T12:02:34.858Z,23.60
2018-09-05T12:05:04.745Z,23.60
2018-09-05T12:07:36.985Z,23.60
2018-09-05T12:10:11.951Z,23.40
2018-09-05T12:12:45.010Z,23.30
2018-09-05T12:15:15.326Z,23.50
2018-09-05T12:17:45.604Z,23.40
2018-09-05T12:20:13.912Z,23.30
2018-09-05T12:22:42.338Z,23.30
2018-09-05T12:25:13.079Z,23.30
2018-09-05T12:27:45.547Z,23.30
2018-09-05T12:30:15.208Z,23.70
2018-09-05T12:32:49.030Z,23.80
2018-09-05T12:35:18.018Z,24.30
2018-09-05T12:37:47.235Z,24.90
2018-09-05T12:40:16.239Z,25.20
2018-09-05T12:42:46.120Z,25.30
2018-09-05T12:45:16.206Z,25.90
2018-09-05T12:47:45.731Z,26.00
2018-09-05T12:50:15.130Z,26.40
2018-09-05T12:52:43.582Z,26.30
2018-09-05T12:55:13.697Z,25.90
2018-09-05T12:57:41.959Z,25.60
2018-09-05T13:00:13.825Z,25.80
2018-09-05T13:02:45.150Z,26.00
2018-09-05T13:05:14.278Z,26.40
2018-09-05T13:07:45.300Z,26.30
2018-09-05T13:10:16.146Z,26.50
2018-09-05T13:12:45.568Z,25.80
2018-09-05T13:15:21.486Z,25.80
2018-09-05T13:17:50.222Z,26.20
2018-09-05T13:20:21.432Z,26.00
2018-09-05T13:22:51.211Z,26.60
2018-09-05T13:25:22.843Z,26.30
2018-09-05T13:27:55.187Z,25.70
2018-09-05T13:30:25.017Z,26.20
2018-09-05T13:32:55.156Z,25.50
2018-09-05T13:35:26.591Z,25.60
2018-09-05T13:37:55.234Z,25.50
2018-09-05T13:40:24.150Z,25.70
2018-09-05T13:42:55.672Z,26.00
2018-09-05T13:45:25.939Z,26.20
2018-09-05T13:47:54.301Z,26.20
2018-09-05T13:50:23.102Z,25.60
2018-09-05T13:52:53.582Z,25.80
2018-09-05T13:55:23.311Z,25.60
2018-09-05T13:57:54.995Z,25.00
2018-09-05T14:00:23.295Z,25.50
2018-09-05T14:02:52.650Z,25.40
2018-09-05T14:05:21.444Z,25.10
2018-09-05T14:07:51.847Z,25.10
2018-09-05T14:10:20.758Z,25.20
2018-09-05T14:12:49.581Z,25.60
2018-09-05T14:15:23.692Z,25.70
2018-09-05T14:17:52.102Z,25.70
2018-09-05T14:20:26.967Z,25.50
2018-09-05T14:23:00.787Z,25.00
2018-09-05T14:25:30.093Z,25.00
2018-09-05T14:27:59.162Z,25.10
2018-09-05T14:30:28.430Z,24.90
2018-09-05T14:32:57.737Z,25.00
2018-09-05T14:35:28.205Z,24.80
2018-09-05T14:37:56.520Z,24.90
2018-09-05T14:40:26.250Z,24.90
2018-09-05T14:42:55.376Z,25.10
2018-09-05T14:45:25.186Z,25.00
2018-09-05T14:48:01.691Z,24.90
2018-09-05T14:50:32.669Z,24.90
2018-09-05T14:53:09.466Z,25.10
2018-09-05T14:55:40.102Z,25.20
2018-09-05T14:58:15.674Z,25.20
2018-09-05T15:00:47.578Z,25.20
2018-09-05T15:03:19.833Z,25.10
2018-09-05T15:05:52.383Z,24.80
2018-09-05T15:08:22.172Z,24.50
2018-09-05T15:10:54.494Z,24.60
2018-09-05T15:13:23.435Z,24.60
2018-09-05T15:15:55.566Z,24.60
2018-09-05T15:18:25.580Z,24.50
2018-09-05T15:20:54.441Z,24.50
2018-09-05T15:23:23.462Z,24.60
2018-09-05T15:25:55.098Z,24.50
2018-09-05T15:28:25.859Z,24.40
2018-09-05T15:30:55.334Z,24.60
2018-09-05T15:33:26.603Z,24.50
2018-09-05T15:35:56.027Z,24.50
2018-09-05T15:38:24.454Z,24.40
2018-09-05T15:40:53.972Z,24.40
2018-09-05T15:43:25.199Z,24.40
2018-09-05T15:45:58.241Z,24.50
2018-09-05T15:48:29.898Z,24.50
2018-09-05T15:50:59.888Z,24.30
2018-09-05T15:53:29.167Z,24.30
2018-09-05T15:55:58.537Z,24.40
2018-09-05T15:58:27.884Z,24.40
2018-09-05T16:00:58.694Z,24.20
2018-09-05T16:03:30.407Z,24.20
2018-09-05T16:07:11.171Z,24.10
2018-09-05T16:09:41.571Z,24.10
2018-09-05T16:12:13.166Z,24.10
2018-09-05T16:14:41.981Z,24.00
2018-09-05T16:17:11.351Z,23.90
2018-09-05T16:19:39.647Z,23.90
2018-09-05T16:22:10.296Z,24.00
2018-09-05T16:24:40.286Z,24.00
2018-09-05T16:27:08.811Z,24.10
2018-09-05T16:29:37.110Z,24.00
2018-09-05T16:32:06.576Z,24.00
2018-09-05T16:34:39.510Z,24.00
2018-09-05T16:37:10.757Z,23.80
2018-09-05T16:39:39.387Z,23.70
2018-09-05T16:42:08.646Z,23.70
2018-09-05T16:44:39.941Z,23.80
2018-09-05T16:47:10.426Z,23.80
2018-09-05T16:49:38.804Z,23.80
2018-09-05T16:52:07.325Z,23.80
2018-09-05T16:54:36.590Z,23.70
2018-09-05T16:57:05.066Z,23.70
2018-09-05T16:59:36.208Z,23.60
2018-09-05T17:02:05.602Z,23.60
2018-09-05T17:04:33.990Z,23.60
2018-09-05T17:07:02.247Z,23.60
2018-09-05T17:09:30.812Z,23.60
2018-09-05T17:11:59.132Z,23.50
2018-09-05T17:14:28.018Z,23.50
2018-09-05T17:16:56.355Z,23.50
2018-09-05T17:19:25.635Z,23.40
2018-09-05T17:21:54.626Z,23.40
2018-09-05T17:24:22.998Z,23.40
2018-09-05T17:26:51.201Z,23.30
2018-09-05T17:29:19.439Z,23.30
2018-09-05T17:31:47.838Z,23.20
2018-09-05T17:34:18.314Z,23.20
2018-09-05T17:36:50.700Z,23.20
2018-09-05T17:39:18.986Z,23.20
2018-09-05T17:41:48.292Z,23.10
2018-09-05T17:44:18.287Z,23.00
2018-09-05T17:46:47.883Z,23.00
2018-09-05T17:49:17.551Z,22.90
2018-09-05T17:51:46.182Z,23.00
2018-09-05T17:54:15.655Z,22.90
2018-09-05T17:56:45.554Z,22.90
2018-09-05T17:59:14.950Z,22.70
2018-09-05T18:01:46.757Z,22.70
2018-09-05T18:04:16.542Z,22.70
2018-09-05T18:06:46.546Z,22.70
2018-09-05T18:09:14.869Z,22.60
2018-09-05T18:11:44.310Z,22.50
2018-09-05T18:14:14.433Z,22.40
2018-09-05T18:16:44.928Z,22.40
2018-09-05T18:19:15.617Z,22.40
2018-09-05T18:21:44.007Z,22.30
2018-09-05T18:24:15.319Z,22.20
2018-09-05T18:26:47.005Z,22.20
2018-09-05T18:29:21.068Z,22.00
2018-09-05T18:31:54.214Z,21.90
2018-09-05T18:34:24.518Z,21.80
2018-09-05T18:36:54.329Z,21.80
2018-09-05T18:39:22.831Z,21.70
2018-09-05T18:41:52.916Z,21.70
2018-09-05T18:44:23.860Z,21.60
2018-09-05T18:46:56.490Z,21.60
2018-09-05T18:49:25.832Z,21.50
2018-09-05T18:51:57.715Z,21.50
2018-09-05T18:54:28.842Z,21.40
2018-09-05T18:57:00.017Z,21.40
2018-09-05T18:59:29.928Z,21.30
2018-09-05T19:01:59.500Z,21.30
2018-09-05T19:04:28.290Z,21.20
2018-09-05T19:06:57.932Z,21.20
2018-09-05T19:09:30.000Z,21.10
2018-09-05T19:12:02.238Z,21.10
2018-09-05T19:14:31.300Z,21.20
2018-09-05T19:17:00.716Z,21.10
2018-09-05T19:19:31.986Z,20.90
2018-09-05T19:22:03.060Z,20.90
2018-09-05T19:24:34.944Z,20.80
2018-09-05T19:27:06.992Z,20.80
2018-09-05T19:29:37.348Z,20.80
2018-09-05T19:32:06.875Z,20.70
2018-09-05T19:34:36.419Z,20.50
2018-09-05T19:37:06.710Z,20.60
2018-09-05T19:39:35.736Z,20.50
2018-09-05T19:42:05.419Z,20.40
2018-09-05T19:44:37.607Z,20.50
2018-09-05T19:47:09.800Z,20.50
2018-09-05T19:49:46.756Z,20.40
2018-09-05T19:52:17.965Z,20.50
2018-09-05T19:54:46.222Z,20.50
2018-09-05T19:57:14.418Z,20.50
2018-09-05T19:59:42.670Z,20.40
2018-09-05T20:02:10.901Z,20.50
2018-09-05T20:04:39.155Z,20.40
2018-09-05T20:07:08.513Z,20.40
2018-09-05T20:09:37.001Z,20.40
2018-09-05T20:12:05.213Z,20.40
2018-09-05T20:14:34.145Z,20.40
2018-09-05T20:17:02.999Z,20.40
2018-09-05T20:19:31.285Z,20.40
2018-09-05T20:21:59.832Z,20.40
2018-09-05T20:24:28.206Z,20.30
2018-09-05T20:26:56.429Z,20.30
2018-09-05T20:29:24.718Z,20.30
2018-09-05T20:31:53.074Z,20.30
2018-09-05T20:34:21.310Z,20.30
2018-09-05T20:36:49.554Z,20.30
2018-09-05T20:39:17.895Z,20.30
2018-09-05T20:41:46.146Z,20.30
2018-09-05T20:44:14.375Z,20.30
2018-09-05T20:46:42.685Z,20.30
2018-09-05T20:49:10.947Z,20.30
2018-09-05T20:51:39.176Z,20.30
2018-09-05T20:54:07.918Z,20.30
2018-09-05T20:56:38.526Z,20.40
2018-09-05T20:59:09.696Z,20.30
2018-09-05T21:01:38.907Z,20.20
2018-09-05T21:04:08.360Z,20.30
2018-09-05T21:06:45.273Z,20.30
2018-09-05T21:09:18.598Z,20.20
2018-09-05T21:11:49.222Z,20.40
2018-09-05T21:14:17.558Z,20.40
2018-09-05T21:16:46.893Z,20.40
2018-09-05T21:19:17.748Z,20.40
2018-09-05T21:21:49.463Z,20.30
2018-09-05T21:24:20.455Z,20.20
2018-09-05T21:26:50.355Z,20.10
2018-09-05T21:29:19.540Z,20.10
2018-09-05T21:31:53.290Z,20.10
2018-09-05T21:34:22.072Z,20.00
2018-09-05T21:36:56.015Z,20.00
2018-09-05T21:39:26.545Z,19.90
2018-09-05T21:41:58.174Z,19.90
2018-09-05T21:44:33.606Z,19.80
2018-09-05T21:47:03.244Z,19.70
2018-09-05T21:49:32.278Z,19.60
2018-09-05T21:52:04.658Z,19.60
2018-09-05T21:54:36.869Z,19.50
2018-09-05T21:57:08.393Z,19.60
2018-09-05T21:59:38.376Z,19.60
2018-09-05T22:02:06.718Z,19.70
2018-09-05T22:04:36.727Z,19.70
2018-09-05T22:07:11.048Z,19.60
2018-09-05T22:09:41.335Z,19.60
2018-09-05T22:12:10.852Z,19.60
2018-09-05T22:14:46.393Z,19.60
2018-09-05T22:17:16.405Z,19.70
2018-09-05T22:19:45.922Z,19.60
2018-09-05T22:22:19.524Z,19.60
2018-09-05T22:24:52.390Z,19.60
2018-09-05T22:27:21.177Z,19.50
2018-09-05T22:29:51.616Z,19.40
2018-09-05T22:32:22.342Z,19.40
2018-09-05T22:34:51.513Z,19.50
2018-09-05T22:37:22.878Z,19.50
2018-09-05T22:39:53.494Z,19.50
2018-09-05T22:42:22.828Z,19.50
2018-09-05T22:45:03.466Z,19.50
2018-09-05T22:48:42.434Z,19.40
2018-09-05T22:54:36.307Z,19.10
2018-09-05T22:57:22.976Z,19.10
2018-09-05T23:00:02.914Z,19.10
2018-09-05T23:02:48.881Z,19.30
2018-09-05T23:06:26.088Z,19.20
2018-09-05T23:08:58.050Z,19.20
2018-09-05T23:11:51.324Z,19.30
2018-09-05T23:14:42.584Z,19.20
2018-09-05T23:17:25.582Z,19.20
2018-09-05T23:30:15.047Z,19.10
2018-09-05T23:32:43.326Z,19.00
2018-09-05T23:35:12.878Z,18.80
2018-09-05T23:37:41.644Z,18.80
2018-09-05T23:40:11.088Z,18.70
2018-09-05T23:42:40.254Z,18.70
2018-09-05T23:45:09.600Z,18.60
2018-09-05T23:47:38.032Z,18.60
2018-09-05T23:50:11.864Z,18.60
2018-09-05T23:52:40.668Z,18.40
2018-09-05T23:55:10.359Z,18.40
2018-09-05T23:57:42.465Z,18.40
